createdAt,value
2018-11-11T00:00:11.989Z,11.14
2018-11-11T00:01:11.967Z,11.15
2018-11-11T00:02:12.032Z,11.14
2018-11-11T00:03:11.977Z,11.12
2018-11-11T00:04:11.935Z,11.14
2018-11-11T00:05:11.973Z,11.18
2018-11-11T00:06:11.920Z,11.11
2018-11-11T00:07:11.912Z,11.14
2018-11-11T00:08:11.968Z,11.12
2018-11-11T00:09:11.905Z,11.12
2018-11-11T00:10:11.882Z,11.11
2018-11-11T00:11:11.862Z,11.14
2018-11-11T00:12:11.932Z,11.11
2018-11-11T00:13:11.942Z,11.12
2018-11-11T00:14:11.837Z,11.18
2018-11-11T00:15:11.823Z,11.12
2018-11-11T00:16:11.806Z,11.22
2018-11-11T00:17:11.799Z,11.11
2018-11-11T00:18:11.824Z,11.14
2018-11-11T00:19:11.777Z,11.12
2018-11-11T00:20:11.772Z,11.15
2018-11-11T00:21:11.781Z,11.07
2018-11-11T00:22:11.749Z,11.14
2018-11-11T00:23:11.798Z,11.11
2018-11-11T00:24:11.735Z,11.08
2018-11-11T00:25:11.772Z,11.10
2018-11-11T00:26:11.712Z,11.15
2018-11-11T00:27:11.716Z,11.18
2018-11-11T00:28:11.751Z,11.15
2018-11-11T00:29:11.756Z,11.15
2018-11-11T00:30:11.676Z,11.17
2018-11-11T00:31:11.663Z,11.12
2018-11-11T00:32:11.648Z,11.10
2018-11-11T00:33:11.743Z,11.11
2018-11-11T00:34:11.644Z,11.17
2018-11-11T00:35:11.613Z,11.15
2018-11-11T00:36:11.595Z,11.18
2018-11-11T00:37:11.597Z,11.11
2018-11-11T00:38:11.621Z,11.14
2018-11-11T00:39:11.566Z,11.12
2018-11-11T00:40:11.556Z,11.18
2018-11-11T00:41:11.550Z,11.10
2018-11-11T00:42:11.587Z,11.14
2018-11-11T00:43:11.559Z,11.10
2018-11-11T00:44:11.509Z,11.10
2018-11-11T00:45:11.505Z,11.15
2018-11-11T00:46:11.487Z,11.11
2018-11-11T00:47:11.512Z,11.11
2018-11-11T00:48:11.495Z,11.14
2018-11-11T00:49:11.457Z,11.11
2018-11-11T00:50:11.452Z,11.14
2018-11-11T00:51:11.441Z,11.14
2018-11-11T00:52:11.423Z,11.15
2018-11-11T00:53:11.488Z,11.14
2018-11-11T00:54:11.403Z,11.11
2018-11-11T00:55:11.394Z,11.22
2018-11-11T00:56:11.386Z,11.22
2018-11-11T00:57:11.386Z,11.10
2018-11-11T00:58:11.396Z,11.12
2018-11-11T00:59:11.438Z,11.12
2018-11-11T01:00:11.339Z,11.12
2018-11-11T01:01:11.330Z,11.17
2018-11-11T01:02:11.318Z,11.14
2018-11-11T01:03:11.340Z,11.12
2018-11-11T01:04:11.298Z,11.14
2018-11-11T01:05:11.299Z,11.17
2018-11-11T01:06:11.274Z,11.10
2018-11-11T01:07:11.265Z,11.10
2018-11-11T01:08:11.282Z,11.14
2018-11-11T01:09:11.246Z,11.14
2018-11-11T01:10:11.243Z,11.19
2018-11-11T01:11:11.230Z,11.18
2018-11-11T01:12:11.276Z,11.07
2018-11-11T01:13:11.259Z,11.18
2018-11-11T01:14:11.210Z,11.17
2018-11-11T01:15:11.189Z,11.14
2018-11-11T01:16:11.172Z,11.08
2018-11-11T01:17:11.202Z,11.15
2018-11-11T01:18:11.182Z,11.18
2018-11-11T01:19:11.142Z,11.08
2018-11-11T01:20:11.186Z,11.14
2018-11-11T01:21:11.181Z,11.00
2018-11-11T01:22:11.134Z,11.08
2018-11-11T01:23:11.182Z,11.14
2018-11-11T01:24:11.163Z,11.14
2018-11-11T01:25:11.078Z,11.08
2018-11-11T01:26:11.105Z,11.11
2018-11-11T01:27:11.055Z,11.08
2018-11-11T01:28:11.071Z,11.07
2018-11-11T01:29:11.066Z,11.05
2018-11-11T01:30:11.053Z,11.07
2018-11-11T01:31:11.016Z,11.04
2018-11-11T01:32:11.006Z,11.08
2018-11-11T01:33:11.063Z,11.07
2018-11-11T01:34:10.982Z,11.04
2018-11-11T01:35:10.968Z,11.02
2018-11-11T01:36:10.993Z,10.97
2018-11-11T01:37:10.952Z,10.97
2018-11-11T01:38:10.969Z,11.05
2018-11-11T01:39:10.924Z,11.05
2018-11-11T01:40:10.939Z,10.97
2018-11-11T01:41:10.929Z,10.96
2018-11-11T01:42:10.922Z,10.93
2018-11-11T01:43:10.938Z,10.96
2018-11-11T01:44:10.883Z,10.76
2018-11-11T01:45:10.866Z,10.82
2018-11-11T01:46:10.853Z,10.86
2018-11-11T01:47:10.896Z,10.78
2018-11-11T01:48:11.546Z,10.81
2018-11-11T01:49:10.822Z,10.75
2018-11-11T01:50:10.809Z,10.74
2018-11-11T01:51:10.953Z,10.69
2018-11-11T01:52:10.805Z,10.78
2018-11-11T01:53:10.778Z,10.68
2018-11-11T01:54:10.832Z,10.67
2018-11-11T01:55:10.761Z,10.71
2018-11-11T01:56:10.745Z,10.74
2018-11-11T01:57:10.747Z,10.63
2018-11-11T01:58:10.733Z,10.64
2018-11-11T01:59:10.768Z,10.68
2018-11-11T02:00:10.706Z,10.72
2018-11-11T02:01:10.697Z,10.71
2018-11-11T02:02:10.688Z,10.61
2018-11-11T02:03:10.673Z,10.71
2018-11-11T02:04:10.696Z,10.72
2018-11-11T02:05:10.679Z,10.71
2018-11-11T02:06:10.645Z,10.72
2018-11-11T02:07:10.631Z,10.68
2018-11-11T02:08:10.619Z,10.69
2018-11-11T02:09:10.637Z,10.60
2018-11-11T02:10:10.604Z,10.72
2018-11-11T02:11:10.619Z,10.71
2018-11-11T02:12:10.591Z,10.72
2018-11-11T02:13:10.584Z,10.74
2018-11-11T02:14:10.603Z,10.82
2018-11-11T02:15:10.549Z,10.78
2018-11-11T02:16:10.541Z,10.75
2018-11-11T02:17:10.526Z,10.87
2018-11-11T02:18:10.569Z,10.86
2018-11-11T02:19:10.538Z,10.81
2018-11-11T02:20:10.506Z,10.89
2018-11-11T02:21:10.566Z,10.84
2018-11-11T02:22:10.478Z,10.87
2018-11-11T02:23:10.459Z,10.93
2018-11-11T02:24:10.539Z,10.81
2018-11-11T02:25:10.456Z,10.86
2018-11-11T02:26:10.428Z,10.87
2018-11-11T02:27:10.426Z,10.92
2018-11-11T02:28:10.413Z,10.96
2018-11-11T02:29:10.458Z,10.96
2018-11-11T02:30:10.429Z,10.94
2018-11-11T02:31:10.384Z,10.97
2018-11-11T02:32:10.377Z,10.87
2018-11-11T02:33:10.367Z,10.94
2018-11-11T02:34:10.374Z,10.89
2018-11-11T02:35:10.339Z,10.87
2018-11-11T02:36:10.348Z,11.00
2018-11-11T02:37:10.319Z,10.86
2018-11-11T02:38:10.304Z,11.00
2018-11-11T02:39:10.339Z,10.96
2018-11-11T02:40:10.287Z,10.96
2018-11-11T02:41:10.291Z,10.93
2018-11-11T02:42:10.260Z,10.99
2018-11-11T02:43:10.248Z,10.99
2018-11-11T02:44:10.294Z,11.00
2018-11-11T02:45:10.246Z,10.97
2018-11-11T02:46:10.233Z,10.99
2018-11-11T02:47:10.208Z,10.82
2018-11-11T02:48:10.197Z,10.81
2018-11-11T02:49:10.229Z,10.76
2018-11-11T02:50:10.188Z,10.71
2018-11-11T02:51:10.166Z,10.68
2018-11-11T02:52:10.355Z,10.67
2018-11-11T02:53:10.149Z,10.68
2018-11-11T02:54:10.163Z,10.59
2018-11-11T02:55:10.172Z,10.61
2018-11-11T02:56:10.749Z,10.61
2018-11-11T02:57:10.108Z,10.60
2018-11-11T02:58:10.175Z,10.57
2018-11-11T02:59:10.121Z,10.49
2018-11-11T03:00:10.075Z,10.49
2018-11-11T03:01:10.058Z,10.49
2018-11-11T03:02:10.081Z,10.49
2018-11-11T03:03:10.041Z,10.53
2018-11-11T03:04:10.162Z,10.42
2018-11-11T03:05:10.023Z,10.48
2018-11-11T03:06:10.052Z,10.48
2018-11-11T03:07:09.995Z,10.41
2018-11-11T03:08:09.991Z,10.51
2018-11-11T03:09:10.002Z,10.41
2018-11-11T03:10:09.963Z,10.34
2018-11-11T03:11:09.953Z,10.40
2018-11-11T03:12:09.986Z,10.38
2018-11-11T03:13:09.935Z,10.35
2018-11-11T03:14:09.956Z,10.34
2018-11-11T03:15:09.917Z,10.38
2018-11-11T03:16:09.927Z,10.40
2018-11-11T03:17:09.892Z,10.22
2018-11-11T03:18:09.898Z,10.28
2018-11-11T03:19:09.897Z,10.33
2018-11-11T03:20:09.861Z,10.30
2018-11-11T03:21:09.849Z,10.31
2018-11-11T03:22:09.838Z,10.26
2018-11-11T03:23:09.828Z,10.15
2018-11-11T03:24:09.945Z,10.17
2018-11-11T03:25:09.808Z,10.22
2018-11-11T03:26:09.802Z,10.22
2018-11-11T03:27:09.789Z,10.19
2018-11-11T03:28:09.779Z,10.15
2018-11-11T03:29:09.836Z,10.28
2018-11-11T03:30:09.781Z,10.22
2018-11-11T03:31:09.778Z,10.12
2018-11-11T03:32:09.757Z,10.17
2018-11-11T03:33:09.725Z,10.16
2018-11-11T03:34:09.744Z,10.19
2018-11-11T03:35:09.700Z,10.17
2018-11-11T03:36:09.694Z,10.19
2018-11-11T03:37:09.703Z,10.25
2018-11-11T03:38:09.672Z,10.19
2018-11-11T03:39:09.703Z,10.17
2018-11-11T03:40:09.649Z,10.17
2018-11-11T03:41:09.655Z,10.19
2018-11-11T03:42:09.629Z,10.04
2018-11-11T03:43:09.652Z,10.26
2018-11-11T03:44:09.638Z,10.22
2018-11-11T03:45:09.602Z,10.20
2018-11-11T03:46:09.623Z,10.22
2018-11-11T03:47:09.576Z,10.22
2018-11-11T03:48:09.578Z,10.25
2018-11-11T03:49:09.606Z,10.26
2018-11-11T03:50:09.550Z,10.12
2018-11-11T03:51:09.534Z,10.17
2018-11-11T03:52:09.527Z,10.25
2018-11-11T03:53:09.517Z,10.15
2018-11-11T03:54:09.539Z,10.26
2018-11-11T03:55:09.535Z,10.25
2018-11-11T03:56:09.483Z,10.25
2018-11-11T03:57:09.473Z,10.26
2018-11-11T03:58:09.463Z,10.25
2018-11-11T03:59:09.798Z,10.28
2018-11-11T04:00:09.447Z,10.26
2018-11-11T04:01:09.481Z,10.35
2018-11-11T04:02:09.424Z,10.33
2018-11-11T04:03:09.416Z,10.35
2018-11-11T04:04:09.427Z,10.31
2018-11-11T04:05:09.388Z,10.33
2018-11-11T04:06:09.381Z,10.33
2018-11-11T04:07:09.388Z,10.30
2018-11-11T04:08:09.359Z,10.30
2018-11-11T04:09:09.380Z,10.41
2018-11-11T04:10:09.347Z,10.34
2018-11-11T04:11:09.328Z,10.35
2018-11-11T04:12:09.316Z,10.31
2018-11-11T04:13:09.343Z,10.37
2018-11-11T04:14:09.323Z,10.31
2018-11-11T04:15:09.286Z,10.31
2018-11-11T04:16:09.275Z,10.48
2018-11-11T04:17:09.263Z,10.40
2018-11-11T04:18:09.270Z,10.42
2018-11-11T04:19:09.324Z,10.41
2018-11-11T04:20:09.234Z,10.31
2018-11-11T04:21:09.226Z,10.30
2018-11-11T04:22:09.229Z,10.41
2018-11-11T04:23:09.207Z,10.35
2018-11-11T04:24:09.219Z,10.40
2018-11-11T04:25:09.233Z,10.37
2018-11-11T04:26:09.178Z,10.48
2018-11-11T04:27:09.190Z,10.49
2018-11-11T04:28:09.327Z,10.53
2018-11-11T04:29:09.439Z,10.38
2018-11-11T04:30:09.136Z,10.48
2018-11-11T04:31:09.129Z,10.42
2018-11-11T04:32:09.107Z,10.44
2018-11-11T04:33:09.181Z,10.42
2018-11-11T04:34:09.090Z,10.38
2018-11-11T04:35:09.112Z,10.40
2018-11-11T04:36:09.102Z,10.46
2018-11-11T04:37:09.077Z,10.41
2018-11-11T04:38:09.045Z,10.41
2018-11-11T04:39:09.119Z,10.42
2018-11-11T04:40:09.106Z,10.41
2018-11-11T04:41:09.015Z,10.37
2018-11-11T04:42:09.008Z,10.41
2018-11-11T04:43:09.061Z,10.42
2018-11-11T04:44:08.990Z,10.33
2018-11-11T04:45:08.977Z,10.40
2018-11-11T04:46:09.059Z,10.31
2018-11-11T04:47:08.954Z,10.41
2018-11-11T04:48:08.937Z,10.42
2018-11-11T04:49:08.926Z,10.34
2018-11-11T04:50:08.916Z,10.31
2018-11-11T04:51:08.986Z,10.34
2018-11-11T04:52:08.923Z,10.38
2018-11-11T04:53:08.885Z,10.38
2018-11-11T04:54:08.881Z,10.38
2018-11-11T04:55:08.879Z,10.49
2018-11-11T04:56:08.852Z,10.33
2018-11-11T04:57:08.877Z,10.35
2018-11-11T04:58:08.859Z,10.34
2018-11-11T04:59:08.834Z,10.34
2018-11-11T05:00:08.817Z,10.26
2018-11-11T05:01:08.801Z,10.31
2018-11-11T05:02:08.817Z,10.20
2018-11-11T05:03:08.814Z,10.22
2018-11-11T05:04:08.789Z,10.16
2018-11-11T05:05:08.787Z,10.16
2018-11-11T05:06:08.756Z,10.22
2018-11-11T05:07:08.737Z,10.20
2018-11-11T05:08:08.774Z,10.20
2018-11-11T05:09:08.731Z,10.07
2018-11-11T05:10:08.705Z,10.07
2018-11-11T05:11:08.702Z,10.07
2018-11-11T05:12:08.713Z,10.02
2018-11-11T05:13:08.706Z,10.10
2018-11-11T05:14:08.677Z,10.07
2018-11-11T05:15:08.682Z,10.12
2018-11-11T05:16:08.643Z,10.10
2018-11-11T05:17:08.641Z,10.17
2018-11-11T05:18:08.684Z,10.15
2018-11-11T05:19:08.655Z,10.15
2018-11-11T05:20:08.603Z,10.17
2018-11-11T05:21:08.604Z,10.15
2018-11-11T05:22:08.586Z,10.15
2018-11-11T05:23:08.602Z,10.07
2018-11-11T05:24:08.625Z,10.04
2018-11-11T05:25:08.551Z,10.01
2018-11-11T05:26:08.554Z,10.07
2018-11-11T05:27:08.622Z,9.95
2018-11-11T05:28:08.564Z,10.09
2018-11-11T05:29:08.519Z,10.07
2018-11-11T05:30:08.536Z,10.04
2018-11-11T05:31:08.490Z,10.10
2018-11-11T05:32:08.496Z,10.07
2018-11-11T05:33:08.497Z,10.04
2018-11-11T05:34:08.456Z,10.23
2018-11-11T05:35:08.514Z,10.20
2018-11-11T05:36:08.438Z,10.16
2018-11-11T05:37:08.435Z,10.17
2018-11-11T05:38:08.450Z,10.22
2018-11-11T05:39:08.414Z,10.26
2018-11-11T05:40:08.395Z,10.19
2018-11-11T05:41:08.430Z,10.22
2018-11-11T05:42:08.386Z,10.31
2018-11-11T05:43:08.412Z,10.26
2018-11-11T05:44:08.356Z,10.34
2018-11-11T05:45:08.383Z,10.34
2018-11-11T05:46:08.334Z,10.31
2018-11-11T05:47:08.404Z,10.38
2018-11-11T05:48:08.341Z,10.42
2018-11-11T05:49:08.305Z,10.35
2018-11-11T05:50:08.293Z,10.41
2018-11-11T05:51:08.335Z,10.44
2018-11-11T05:52:08.267Z,10.44
2018-11-11T05:53:08.286Z,10.46
2018-11-11T05:54:09.098Z,10.49
2018-11-11T05:55:08.239Z,10.41
2018-11-11T05:56:08.229Z,10.53
2018-11-11T05:57:08.233Z,10.41
2018-11-11T05:58:08.237Z,10.40
2018-11-11T05:59:08.197Z,10.49
2018-11-11T06:00:08.186Z,10.44
2018-11-11T06:01:08.283Z,10.51
2018-11-11T06:02:08.170Z,10.57
2018-11-11T06:03:08.210Z,10.48
2018-11-11T06:04:08.143Z,10.56
2018-11-11T06:05:08.135Z,10.57
2018-11-11T06:06:08.126Z,10.57
2018-11-11T06:07:08.175Z,10.49
2018-11-11T06:08:08.293Z,10.56
2018-11-11T06:09:08.108Z,10.53
2018-11-11T06:10:08.083Z,10.54
2018-11-11T06:11:08.103Z,10.54
2018-11-11T06:12:08.151Z,10.59
2018-11-11T06:13:08.085Z,10.57
2018-11-11T06:14:08.040Z,10.54
2018-11-11T06:15:08.086Z,10.59
2018-11-11T06:16:08.046Z,10.56
2018-11-11T06:17:08.013Z,10.63
2018-11-11T06:18:08.053Z,10.60
2018-11-11T06:19:08.023Z,10.68
2018-11-11T06:20:08.035Z,10.63
2018-11-11T06:21:07.963Z,10.68
2018-11-11T06:22:07.985Z,10.72
2018-11-11T06:23:09.791Z,10.60
2018-11-11T06:24:07.933Z,10.69
2018-11-11T06:25:07.924Z,10.72
2018-11-11T06:26:07.913Z,10.64
2018-11-11T06:27:07.900Z,10.72
2018-11-11T06:28:07.973Z,10.67
2018-11-11T06:29:07.916Z,10.74
2018-11-11T06:30:08.002Z,10.75
2018-11-11T06:31:07.866Z,10.71
2018-11-11T06:32:07.863Z,10.72
2018-11-11T06:33:08.009Z,10.72
2018-11-11T06:34:07.916Z,10.74
2018-11-11T06:35:07.835Z,10.72
2018-11-11T06:36:07.805Z,10.71
2018-11-11T06:37:07.794Z,10.72
2018-11-11T06:38:07.825Z,10.75
2018-11-11T06:39:07.772Z,10.75
2018-11-11T06:40:07.819Z,10.69
2018-11-11T06:41:07.756Z,10.69
2018-11-11T06:42:07.868Z,10.69
2018-11-11T06:43:07.802Z,10.72
2018-11-11T06:44:07.742Z,10.67
2018-11-11T06:45:07.801Z,10.68
2018-11-11T06:46:07.730Z,10.69
2018-11-11T06:47:07.692Z,10.67
2018-11-11T06:48:08.077Z,10.68
2018-11-11T06:49:07.714Z,10.68
2018-11-11T06:50:07.677Z,10.64
2018-11-11T06:51:07.728Z,10.63
2018-11-11T06:52:07.802Z,10.67
2018-11-11T06:53:07.631Z,10.68
2018-11-11T06:54:07.774Z,10.69
2018-11-11T06:55:07.778Z,10.74
2018-11-11T06:56:15.245Z,10.63
2018-11-11T06:57:15.247Z,10.63
2018-11-11T06:58:07.670Z,10.72
2018-11-11T06:59:07.617Z,10.64
2018-11-11T07:00:07.793Z,10.68
2018-11-11T07:01:07.545Z,10.68
2018-11-11T07:02:07.535Z,10.67
2018-11-11T07:03:07.547Z,10.61
2018-11-11T07:04:08.062Z,10.67
2018-11-11T07:05:09.437Z,10.68
2018-11-11T07:06:07.512Z,10.67
2018-11-11T07:07:07.640Z,10.69
2018-11-11T07:08:07.579Z,10.68
2018-11-11T07:09:07.679Z,10.74
2018-11-11T07:10:07.539Z,10.61
2018-11-11T07:11:07.578Z,10.72
2018-11-11T07:12:07.484Z,10.71
2018-11-11T07:13:07.918Z,10.82
2018-11-11T07:14:09.610Z,10.78
2018-11-11T07:15:07.531Z,10.81
2018-11-11T07:16:07.384Z,10.81
2018-11-11T07:17:07.372Z,10.92
2018-11-11T07:18:07.363Z,10.92
2018-11-11T07:19:07.370Z,10.93
2018-11-11T07:20:07.766Z,10.93
2018-11-11T07:21:07.408Z,10.94
2018-11-11T07:22:07.356Z,10.93
2018-11-11T07:23:07.389Z,11.00
2018-11-11T07:24:07.426Z,10.96
2018-11-11T07:25:07.779Z,10.96
2018-11-11T07:26:07.282Z,10.93
2018-11-11T07:27:07.295Z,11.02
2018-11-11T07:28:07.258Z,10.94
2018-11-11T07:29:07.319Z,10.97
2018-11-11T07:30:07.425Z,10.96
2018-11-11T07:31:07.345Z,10.92
2018-11-11T07:32:07.259Z,10.97
2018-11-11T07:33:07.215Z,10.97
2018-11-11T07:34:08.515Z,10.97
2018-11-11T07:35:07.221Z,10.99
2018-11-11T07:36:07.219Z,10.93
2018-11-11T07:37:07.260Z,10.99
2018-11-11T07:38:07.338Z,11.02
2018-11-11T07:39:07.141Z,10.87
2018-11-11T07:40:07.173Z,11.04
2018-11-11T07:41:07.132Z,11.04
2018-11-11T07:42:07.128Z,10.96
2018-11-11T07:43:07.164Z,10.93
2018-11-11T07:44:07.223Z,10.92
2018-11-11T07:45:07.155Z,10.96
2018-11-11T07:46:07.071Z,10.96
2018-11-11T07:47:07.060Z,10.92
2018-11-11T07:48:07.263Z,10.93
2018-11-11T07:49:07.336Z,10.96
2018-11-11T07:50:07.098Z,10.93
2018-11-11T07:51:07.075Z,10.92
2018-11-11T07:52:07.113Z,10.94
2018-11-11T07:53:07.106Z,10.93
2018-11-11T07:54:06.988Z,10.89
2018-11-11T07:55:07.213Z,10.86
2018-11-11T07:56:07.007Z,10.89
2018-11-11T07:57:06.952Z,10.79
2018-11-11T07:58:07.137Z,10.87
2018-11-11T07:59:06.992Z,10.84
2018-11-11T08:00:07.121Z,10.89
2018-11-11T08:01:06.912Z,10.89
2018-11-11T08:02:07.017Z,10.94
2018-11-11T08:03:06.891Z,10.86
2018-11-11T08:04:06.922Z,10.86
2018-11-11T08:05:07.135Z,10.92
2018-11-11T08:06:06.860Z,10.94
2018-11-11T08:07:06.849Z,10.89
2018-11-11T08:08:06.844Z,10.89
2018-11-11T08:09:06.826Z,10.97
2018-11-11T08:10:06.852Z,10.92
2018-11-11T08:11:06.825Z,10.92
2018-11-11T08:12:06.796Z,10.93
2018-11-11T08:13:06.785Z,10.90
2018-11-11T08:14:07.353Z,10.96
2018-11-11T08:15:06.801Z,11.05
2018-11-11T08:16:06.814Z,10.97
2018-11-11T08:17:06.763Z,11.02
2018-11-11T08:18:06.839Z,11.00
2018-11-11T08:19:06.727Z,11.05
2018-11-11T08:20:06.820Z,11.02
2018-11-11T08:21:06.707Z,11.11
2018-11-11T08:22:06.739Z,11.11
2018-11-11T08:23:06.726Z,11.14
2018-11-11T08:24:06.842Z,11.14
2018-11-11T08:25:06.940Z,11.15
2018-11-11T08:26:07.268Z,11.19
2018-11-11T08:27:06.675Z,11.22
2018-11-11T08:28:06.626Z,11.27
2018-11-11T08:29:06.618Z,11.40
2018-11-11T08:30:06.605Z,11.37
2018-11-11T08:31:06.627Z,11.43
2018-11-11T08:32:06.723Z,11.41
2018-11-11T08:33:06.575Z,11.45
2018-11-11T08:34:06.574Z,11.51
2018-11-11T08:35:06.575Z,11.52
2018-11-11T08:36:06.554Z,11.51
2018-11-11T08:37:06.577Z,11.51
2018-11-11T08:38:06.575Z,11.57
2018-11-11T08:39:06.587Z,11.57
2018-11-11T08:40:06.501Z,11.52
2018-11-11T08:41:06.489Z,11.55
2018-11-11T08:42:06.639Z,11.50
2018-11-11T08:43:06.466Z,11.57
2018-11-11T08:44:06.461Z,11.57
2018-11-11T08:45:06.484Z,11.59
2018-11-11T08:46:06.531Z,11.57
2018-11-11T08:47:06.608Z,11.54
2018-11-11T08:48:06.514Z,11.54
2018-11-11T08:49:06.422Z,11.52
2018-11-11T08:50:06.466Z,11.52
2018-11-11T08:51:06.387Z,11.54
2018-11-11T08:52:06.704Z,11.50
2018-11-11T08:53:06.596Z,11.55
2018-11-11T08:54:06.384Z,11.51
2018-11-11T08:55:06.340Z,11.57
2018-11-11T08:56:06.357Z,11.59
2018-11-11T08:57:06.320Z,11.69
2018-11-11T08:58:06.954Z,11.73
2018-11-11T08:59:06.646Z,11.72
2018-11-11T09:00:06.330Z,11.80
2018-11-11T09:01:06.280Z,11.70
2018-11-11T09:02:06.268Z,11.80
2018-11-11T09:03:06.286Z,11.81
2018-11-11T09:04:06.244Z,11.88
2018-11-11T09:05:06.461Z,11.97
2018-11-11T09:06:06.589Z,12.03
2018-11-11T09:07:06.218Z,11.99
2018-11-11T09:08:06.220Z,11.97
2018-11-11T09:09:06.194Z,11.97
2018-11-11T09:10:06.264Z,11.97
2018-11-11T09:11:06.208Z,11.94
2018-11-11T09:12:06.168Z,12.02
2018-11-11T09:13:06.493Z,12.02
2018-11-11T09:14:06.150Z,12.02
2018-11-11T09:15:06.163Z,12.12
2018-11-11T09:16:06.202Z,12.09
2018-11-11T09:17:06.141Z,12.20
2018-11-11T09:18:06.104Z,12.28
2018-11-11T09:19:06.359Z,12.31
2018-11-11T09:20:06.115Z,12.31
2018-11-11T09:21:06.085Z,12.29
2018-11-11T09:22:07.075Z,12.42
2018-11-11T09:23:06.053Z,12.43
2018-11-11T09:24:06.077Z,12.43
2018-11-11T09:25:06.033Z,12.40
2018-11-11T09:26:06.061Z,12.53
2018-11-11T09:27:06.792Z,12.46
2018-11-11T09:28:05.995Z,12.57
2018-11-11T09:29:05.998Z,12.72
2018-11-11T09:30:06.018Z,12.85
2018-11-11T09:31:05.965Z,12.85
2018-11-11T09:32:05.985Z,12.90
2018-11-11T09:33:05.978Z,12.93
2018-11-11T09:34:05.963Z,12.86
2018-11-11T09:35:05.954Z,12.98
2018-11-11T09:36:06.718Z,13.05
2018-11-11T09:37:06.371Z,13.22
2018-11-11T09:38:05.889Z,13.05
2018-11-11T09:39:05.997Z,13.08
2018-11-11T09:40:05.931Z,13.15
2018-11-11T09:41:06.080Z,13.18
2018-11-11T09:42:05.940Z,13.05
2018-11-11T09:43:05.835Z,12.98
2018-11-11T09:44:05.828Z,13.00
2018-11-11T09:45:05.878Z,12.95
2018-11-11T09:46:13.482Z,12.86
2018-11-11T09:47:05.941Z,12.90
2018-11-11T09:48:05.789Z,12.85
2018-11-11T09:49:05.818Z,12.82
2018-11-11T09:50:05.817Z,12.83
2018-11-11T09:51:06.395Z,12.76
2018-11-11T09:52:13.654Z,12.78
2018-11-11T09:53:05.732Z,12.80
2018-11-11T09:54:05.803Z,12.82
2018-11-11T09:55:15.220Z,12.80
2018-11-11T09:56:05.785Z,12.79
2018-11-11T09:57:05.686Z,12.90
2018-11-11T09:58:05.683Z,12.91
2018-11-11T09:59:05.682Z,12.95
2018-11-11T10:00:05.694Z,12.80
2018-11-11T10:01:05.659Z,12.86
2018-11-11T10:02:05.636Z,12.87
2018-11-11T10:03:13.739Z,12.95
2018-11-11T10:04:05.612Z,12.90
2018-11-11T10:05:05.642Z,12.87
2018-11-11T10:06:05.657Z,12.91
2018-11-11T10:07:13.768Z,12.95
2018-11-11T10:08:05.569Z,12.90
2018-11-11T10:09:05.560Z,12.90
2018-11-11T10:10:05.692Z,12.85
2018-11-11T10:11:13.125Z,12.86
2018-11-11T10:12:13.223Z,12.86
2018-11-11T10:13:05.519Z,12.86
2018-11-11T10:14:05.512Z,12.94
2018-11-11T10:15:05.493Z,12.94
2018-11-11T10:16:05.662Z,12.91
2018-11-11T10:17:13.475Z,12.90
2018-11-11T10:18:05.559Z,12.90
2018-11-11T10:19:13.348Z,12.87
2018-11-11T10:20:05.553Z,12.97
2018-11-11T10:21:05.461Z,13.04
2018-11-11T10:22:05.430Z,13.20
2018-11-11T10:23:05.448Z,13.12
2018-11-11T10:24:13.403Z,13.13
2018-11-11T10:25:13.509Z,13.13
2018-11-11T10:26:14.882Z,13.15
2018-11-11T10:27:05.375Z,13.19
2018-11-11T10:28:05.356Z,13.19
2018-11-11T10:29:14.464Z,13.23
2018-11-11T10:30:05.381Z,13.23
2018-11-11T10:31:05.358Z,13.30
2018-11-11T10:32:13.406Z,13.30
2018-11-11T10:33:13.202Z,13.27
2018-11-11T10:34:05.293Z,13.23
2018-11-11T10:35:13.337Z,13.20
2018-11-11T10:37:15.940Z,13.28
2018-11-11T10:38:24.046Z,13.28
2018-11-11T10:39:23.854Z,13.38
2018-11-11T10:40:15.873Z,13.44
2018-11-11T10:41:16.026Z,13.38
